Terminal Aerodrome Forecast
Issued by NWS

Home | Current Version | Previous Version | Text Only | Print | Product List | Glossary Off
Versions: 1 2 3 4 5 6 7 8 9 10 11 12 13 14

815
FTUS43 KTOP 191125
TAFFOE
TAF
KFOE 191125Z 1912/2012 18007KT P6SM FEW150
     FM191400 18009KT P6SM VCTS SCT080CB
     FM191600 19010KT P6SM FEW200=

USA.gov is the U.S. government's official web portal to all federal, state and local government web resources and services.